• Join FlightAware (Why Join?)
  • Login
  • US Flag 
01:41AM EDT


 

Airport Tracker/Info


-or-


 

Live Flight TrackerFlight Track Log ✈ N67511 ✈ 24-Jun-2013 ✈ KMQI - KYIP

Flight Track Log - Related Links

Times and Time Zones

All times are in EDT time to prevent confusion due to time zone crossing. See the N67511 flight status page for this flight to view local times or setup timezone preferences in your user account.

Time Position Orientation Groundspeed Altitude Reporting Facility
EDT Latitude Longitude Course Direction KTS MPH feet Rate Location/Type
12:38PM 35.9658 -75.7922 310° West 212 244 4,000  Level Washington Center
12:39PM 36.0951 -75.9402 302° West  Level FlightAware Approximate
12:39PM 35.9931 -75.8283 313° West 177 204 5,700  Level Washington Center
12:40PM 36.1263 -75.9978 310° West  Level FlightAware Approximate
12:40PM 36.0200 -75.8667 311° West 156 180 7,100  Level Washington Center
12:41PM 36.0492 -75.8978 319° Northwest 151 174 8,500 1,380 Climbing Washington Center
12:42PM 36.0761 -75.9364 311° West 146 168 9,900 1,380 Climbing Washington Center
12:43PM 36.1053 -75.9725 315° West 146 168 11,300 1,260 Climbing Washington Center
12:44PM 36.1322 -76.0111 311° West 146 168 12,500 1,140 Climbing Washington Center
12:45PM 36.1614 -76.0500 313° West 146 168 13,600 1,080 Climbing Washington Center
12:46PM 36.1906 -76.0914 311° West 146 168 14,700 1,080 Climbing Washington Center
12:46PM 36.2069 -76.1144 311° West 156 180 15,300 1,080 Climbing Washington Center
12:47PM 36.2217 -76.1275 324° Northwest 152 175 15,800 960 Climbing Washington Center
12:47PM 36.2361 -76.1508 308° West 152 175 16,300 900 Climbing Washington Center
12:49PM 36.2775 -76.2078 312° West 157 181 17,600 720 Climbing Washington Center
12:50PM 36.3022 -76.2544 303° West 157 181 18,100 600 Climbing Washington Center
12:51PM 36.3272 -76.3036 302° West 162 186 18,900 720 Climbing Washington Center
12:52PM 36.3561 -76.3503 308° West 162 186 19,600 660 Climbing Washington Center
12:53PM 36.3808 -76.3994 302° West 167 192 20,300 660 Climbing Washington Center
12:54PM 36.4056 -76.4436 305° West 167 192 21,000 600 Climbing Washington Center
12:55PM 36.4303 -76.4903 303° West 167 192 21,600 480 Climbing Washington Center
12:56PM 36.4569 -76.5397 304° West 167 192 22,000 180 Climbing Washington Center
12:57PM 36.4878 -76.5944 305° West 173 199 22,000 -60 Level Washington Center
12:58PM 36.5186 -76.6542 303° West 187 215 21,900 -60 Descending Washington Center
12:59PM 36.5514 -76.7114 306° West 199 229 21,900  Level Washington Center
01:00PM 36.5842 -76.7714 304° West 199 229 21,900  Level Washington Center
01:01PM 36.6150 -76.8289 304° West 204 235 22,000  Climbing Washington Center
01:02PM 36.6497 -76.8889 306° West 204 235 22,000  Level Washington Center
01:03PM 36.6803 -76.9489 302° West 209 241 22,000  Level Washington Center
01:04PM 36.7131 -77.0092 304° West 209 241 22,000  Level Washington Center
01:05PM 36.7542 -77.0567 317° Northwest 214 246 22,000  Level Washington Center
01:06PM 36.7997 -77.0989 323° Northwest 202 232 22,000  Level Washington Center
01:07PM 36.8450 -77.1414 323° Northwest 207 238 22,000  Level Washington Center
01:08PM 36.8903 -77.1864 322° Northwest 207 238 22,000  Level Washington Center
01:09PM 36.9336 -77.2289 322° Northwest 202 232 22,000  Level Washington Center
01:10PM 36.9767 -77.2714 322° Northwest 202 232 22,000  Level Washington Center
01:11PM 37.0200 -77.3167 320° Northwest 202 232 22,000  Level Washington Center
01:12PM 37.0631 -77.3592 322° Northwest 202 232 22,000  Level Washington Center
01:13PM 37.1064 -77.4019 322° Northwest 202 232 22,000  Level Washington Center
01:14PM 37.1494 -77.4472 320° Northwest 202 232 22,000  Level Washington Center
01:15PM 37.1925 -77.4872 324° Northwest 202 232 22,000  Level Washington Center
01:16PM 37.2336 -77.5275 322° Northwest 202 232 22,000  Level Washington Center
01:17PM 37.2747 -77.5703 320° Northwest 202 232 22,000  Level Washington Center
01:18PM 37.3178 -77.6131 322° Northwest 202 232 22,000  Level Washington Center
01:19PM 37.3608 -77.6533 323° Northwest 202 232 22,000  Level Washington Center
01:20PM 37.4039 -77.6964 322° Northwest 202 232 22,000  Level Washington Center
01:21PM 37.4450 -77.7419 319° Northwest 202 232 22,000  Level Washington Center
01:22PM 37.4878 -77.7853 321° Northwest 202 232 22,000  Level Washington Center
01:23PM 37.5289 -77.8283 320° Northwest 197 227 22,000  Level Washington Center
01:24PM 37.5550 -77.8839 301° West 186 214 22,000  Level Washington Center
01:25PM 37.5831 -77.9425 301° West 186 214 22,000  Level Washington Center
01:26PM 37.6111 -77.9983 302° West 186 214 22,000  Level Washington Center
01:27PM 37.6369 -78.0517 301° West 186 214 22,000  Level Washington Center
01:28PM 37.6631 -78.1078 300° West 186 214 22,000  Level Washington Center
01:29PM 37.6889 -78.1636 300° West 191 220 22,000  Level Washington Center
01:30PM 37.7192 -78.2197 304° West 191 220 22,000  Level Washington Center
01:31PM 37.7450 -78.2758 300° West 191 220 22,000  Level Washington Center
01:32PM 37.7728 -78.3372 300° West 191 220 22,000  Level Washington Center
01:33PM 37.7986 -78.3961 299° West 191 220 22,000  Level Washington Center
01:34PM 37.8264 -78.4522 302° West 191 220 22,000  Level Washington Center
01:35PM 37.8458 -78.5056 295° West 191 220 22,000  Level Washington Center
01:36PM 37.8675 -78.5642 295° West 181 208 22,000  Level Washington Center
01:37PM 37.8889 -78.6231 295° West 181 208 22,000  Level Washington Center
01:38PM 37.9103 -78.6817 295° West 181 208 22,000  Level Washington Center
01:39PM 37.9336 -78.7486 294° West 181 208 22,000  Level Washington Center
01:40PM 37.9550 -78.8075 295° West 181 208 22,000  Level Washington Center
01:41PM 37.9742 -78.8661 293° West 181 208 22,000  Level Washington Center
01:42PM 37.9936 -78.9222 294° West 181 208 22,000  Level Washington Center
01:43PM 38.0150 -78.9814 295° West 186 214 22,000  Level Washington Center
01:44PM 38.0361 -79.0428 294° West 186 214 22,000  Level Washington Center
01:45PM 38.0592 -79.1100 294° West 191 220 22,000  Level Washington Center
01:46PM 38.0803 -79.1714 294° West 191 220 22,000  Level Washington Center
01:47PM 38.1056 -79.2281 300° West 191 220 22,000  Level Washington Center
01:48PM 38.1333 -79.2822 303° West 191 220 22,000  Level Washington Center
01:49PM 38.1650 -79.3289 311° West 191 220 22,000  Level Washington Center
01:50PM 38.2011 -79.3808 312° West 191 220 22,000  Level Washington Center
01:51PM 38.2328 -79.4328 308° West 191 220 22,000  Level Washington Center
01:52PM 38.2747 -79.4903 313° West 191 220 22,000  Level Washington Center
01:53PM 38.3128 -79.5400 314° West 196 226 22,000  Level Washington Center
01:54PM 38.3506 -79.5922 313° West 196 226 22,000  Level Washington Center
01:55PM 38.3825 -79.6364 313° West 196 226 22,000  Level Washington Center
01:56PM 38.4269 -79.6811 322° Northwest 196 226 22,000  Level Washington Center
01:57PM 38.4733 -79.7208 326° Northwest 196 226 22,000  Level Washington Center
01:58PM 38.5225 -79.7475 337° Northwest 196 226 22,000  Level Washington Center
01:59PM 38.5794 -79.7881 331° Northwest 202 232 22,000  Level Washington Center
02:00PM 38.6283 -79.8225 331° Northwest 197 227 22,000  Level Washington Center
02:01PM 38.6750 -79.8572 330° Northwest 192 221 22,000  Level Washington Center
02:02PM 38.7667 -79.9122 335° Northwest 215 247 22,000  Level Cleveland Center
02:03PM 38.8128 -79.9439 332° Northwest 215 247 22,000  Level Cleveland Center
02:04PM 38.8631 -79.9808 330° Northwest 210 242 22,000  Level Cleveland Center
02:05PM 38.9131 -80.0150 332° Northwest 205 236 22,000  Level Cleveland Center
02:06PM 38.9611 -80.0492 331° Northwest 205 236 22,000  Level Cleveland Center
02:07PM 39.0092 -80.0836 331° Northwest 200 230 22,000  Level Cleveland Center
02:08PM 39.0575 -80.1181 331° Northwest 200 230 22,000  Level Cleveland Center
02:09PM 39.1056 -80.1525 331° Northwest 200 230 22,000  Level Cleveland Center
02:10PM 39.1536 -80.1869 331° Northwest 200 230 22,000  Level Cleveland Center
02:11PM 39.2036 -80.2214 332° Northwest 200 230 22,000  Level Cleveland Center
02:12PM 39.2497 -80.2533 332° Northwest 206 237 22,000  Level Cleveland Center
02:13PM 39.2997 -80.2906 330° Northwest 206 237 22,000  Level Cleveland Center
02:14PM 39.3497 -80.3253 332° Northwest 206 237 22,000  Level Cleveland Center
02:15PM 39.3958 -80.3600 330° Northwest 206 237 22,000  Level Cleveland Center
02:16PM 39.4439 -80.3950 331° Northwest 206 237 22,000  Level Cleveland Center
02:17PM 39.4917 -80.4269 333° Northwest 206 237 22,000  Level Cleveland Center
02:18PM 39.5397 -80.4619 331° Northwest 201 231 22,000  Level Cleveland Center
02:19PM 39.5856 -80.4969 330° Northwest 201 231 22,000  Level Cleveland Center
02:20PM 39.6356 -80.5319 332° Northwest 201 231 22,000  Level Cleveland Center
02:21PM 39.6817 -80.5669 330° Northwest 201 231 22,000  Level Cleveland Center
02:22PM 39.7294 -80.6019 331° Northwest 201 231 22,000  Level Cleveland Center
02:23PM 39.7775 -80.6344 333° Northwest 196 226 22,000  Level Cleveland Center
02:24PM 39.8233 -80.6694 330° Northwest 196 226 22,000  Level Cleveland Center
02:25PM 39.8711 -80.7047 330° Northwest 196 226 22,000  Level Cleveland Center
02:26PM 39.9192 -80.7375 332° Northwest 196 226 22,000  Level Cleveland Center
02:27PM 39.9689 -80.7753 330° Northwest 196 226 22,000  Level Cleveland Center
02:28PM 40.0169 -80.8081 332° Northwest 196 226 22,000  Level Cleveland Center
02:29PM 40.0606 -80.8489 324° Northwest 190 219 22,000  Level Cleveland Center
02:30PM 40.1042 -80.8925 323° Northwest 190 219 22,000  Level Cleveland Center
02:31PM 40.1458 -80.9361 321° Northwest 190 219 22,000  Level Cleveland Center
02:32PM 40.1875 -80.9772 323° Northwest 195 224 22,000  Level Cleveland Center
02:33PM 40.2311 -81.0208 323° Northwest 195 224 22,000  Level Cleveland Center
02:34PM 40.2725 -81.0592 325° Northwest 195 224 22,000  Level Cleveland Center
02:35PM 40.3161 -81.1031 323° Northwest 195 224 22,000  Level Cleveland Center
02:36PM 40.3597 -81.1469 323° Northwest 195 224 22,000  Level Cleveland Center
02:37PM 40.4033 -81.1911 322° Northwest 195 224 22,000  Level Cleveland Center
02:38PM 40.4489 -81.2325 325° Northwest 200 230 22,000  Level Cleveland Center
02:39PM 40.4925 -81.2739 324° Northwest 200 230 22,000  Level Cleveland Center
02:40PM 40.5381 -81.3181 324° Northwest 200 230 22,000  Level Cleveland Center
02:41PM 40.5794 -81.3594 323° Northwest 200 230 22,000  Level Cleveland Center
02:42PM 40.6228 -81.4036 322° Northwest 194 223 22,000  Level Cleveland Center
02:43PM 40.6642 -81.4453 323° Northwest 194 223 22,000  Level Cleveland Center
02:44PM 40.7078 -81.4897 322° Northwest 199 229 22,000  Level Cleveland Center
02:45PM 40.7511 -81.5314 324° Northwest 199 229 22,000  Level Cleveland Center
02:46PM 40.7967 -81.5758 324° Northwest 199 229 22,000  Level Cleveland Center
02:47PM 40.8381 -81.6178 323° Northwest 199 229 22,000  Level Cleveland Center
02:48PM 40.8833 -81.6625 323° Northwest 199 229 22,000  Level Cleveland Center
02:49PM 40.9267 -81.7044 324° Northwest 199 229 22,000  Level Cleveland Center
02:50PM 40.9658 -81.7436 323° Northwest 199 229 22,000  Level Cleveland Center
02:51PM 41.0092 -81.7883 322° Northwest 199 229 22,000  Level Cleveland Center
02:52PM 41.0547 -81.8306 325° Northwest 199 229 22,000  Level Cleveland Center
02:53PM 41.0981 -81.8753 322° Northwest 199 229 22,000  Level Cleveland Center
02:54PM 41.1517 -81.9206 328° Northwest 199 229 22,000  Level Cleveland Center
02:55PM 41.1950 -81.9656 322° Northwest 199 229 22,000  Level Cleveland Center
02:56PM 41.2381 -82.0106 322° Northwest 199 229 22,000 -300 Level Cleveland Center
02:57PM 41.2833 -82.0558 323° Northwest 199 229 21,500 -840 Descending Cleveland Center
02:58PM 41.3347 -82.1069 323° Northwest 209 241 20,400 -1,320 Descending Cleveland Center
02:59PM 41.3903 -82.1664 321° Northwest 236 272 18,900 -1,380 Descending Cleveland Center
03:00PM 41.4458 -82.2231 323° Northwest 248 285 17,700 -1,200 Descending Cleveland Center
03:01PM 41.4972 -82.2742 323° Northwest 258 297 16,500 -1,380 Descending Cleveland Center
03:02PM 41.5528 -82.3283 324° Northwest 253 291 15,000 -1,500 Descending Cleveland Center
03:03PM 41.6061 -82.3825 323° Northwest 247 284 13,600 -1,380 Descending Cleveland Center
03:04PM 41.6572 -82.4369 321° Northwest 242 278 12,300 -1,380 Descending Cleveland Center
03:05PM 41.7086 -82.4883 323° Northwest 242 278 10,900 -1,620 Descending Cleveland Center
03:06PM 41.7414 -82.5200 324° Northwest 233 268 9,800 -1,140 Descending Cleveland Center
03:07PM 41.7947 -82.5744 323° Northwest 225 259 9,200 -420 Descending Cleveland Center
03:08PM 41.8417 -82.6206 324° Northwest 216 249 9,000 -300 Descending Cleveland Center
03:09PM 41.8889 -82.6611 327° Northwest 221 254 8,700 -540 Descending Cleveland Center
03:09PM 41.9075 -82.6814 321° Northwest 221 254 8,300 -1,140 Descending Cleveland Center
03:10PM 41.9361 -82.7131 321° Northwest 219 252 7,600 -1,020 Descending Cleveland Center
03:10PM 41.9522 -82.7331 317° Northwest 216 249 7,300 -1,020 Descending Cleveland Center
03:11PM 41.9808 -82.7703 316° Northwest 211 243 6,600 -1,140 Descending Cleveland Center
03:12PM 42.0214 -82.8275 314° West 205 236 5,600 -780 Descending Cleveland Center
03:13PM 42.0661 -82.8850 316° Northwest 199 229 5,000 -300 Descending Cleveland Center
03:14PM 42.0922 -82.9392 303° West 195 224 5,000  Level Cleveland Center
03:15PM 42.1239 -83.0103 301° West 195 224 5,000  Level Cleveland Center
03:16PM 42.1539 -83.0731 303° West 193 222 5,000  Level Cleveland Center
03:17PM 42.1797 -83.1358 299° West 192 221 5,000  Level Cleveland Center
03:18PM 42.2011 -83.1983 295° West 193 222 5,000  Level Cleveland Center
03:19PM 42.2308 -83.2642 301° West 191 220 5,000  Level Cleveland Center
03:20PM 42.2564 -83.3269 299° West 188 216 5,000  Level Cleveland Center
03:21PM 42.2800 -83.3869 298° West 156 180 5,000 -180 Level Cleveland Center
03:22PM 42.2978 -83.4353 296° West 145 167 4,700 -600 Descending Cleveland Center
03:23PM 42.3214 -83.4897 300° West 174 200 3,900 -900 Descending Cleveland Center
03:24PM 42.3564 -83.5083 339° North 184 212 2,900 -720 Descending Cleveland Center
03:25PM 42.3344 -83.4681 126° Southeast 119 137 2,400 -360 Descending Cleveland Center
03:26PM 42.3008 -83.4719 185° South 126 145 2,200 -300 Descending Cleveland Center
03:27PM 42.2733 -83.4906 207° Southwest 117 135 1,800 -420 Descending Cleveland Center